sensor_id;sensor_type;location;lat;lon;timestamp;temperature;humidity
11704;DHT22;5908;51.354;7.458;2023-12-28T00:00:02;10.50;99.90
11704;DHT22;5908;51.354;7.458;2023-12-28T00:02:30;10.50;99.90
11704;DHT22;5908;51.354;7.458;2023-12-28T00:04:57;10.40;99.90
11704;DHT22;5908;51.354;7.458;2023-12-28T00:07:23;10.40;99.90
11704;DHT22;5908;51.354;7.458;2023-12-28T00:09:50;10.40;99.90
11704;DHT22;5908;51.354;7.458;2023-12-28T00:12:17;10.40;99.90
11704;DHT22;5908;51.354;7.458;2023-12-28T00:14:43;10.40;99.90
11704;DHT22;5908;51.354;7.458;2023-12-28T00:17:10;10.40;99.90
11704;DHT22;5908;51.354;7.458;2023-12-28T00:19:38;10.20;99.90
11704;DHT22;5908;51.354;7.458;2023-12-28T00:22:04;10.20;99.90
11704;DHT22;5908;51.354;7.458;2023-12-28T00:24:31;10.20;99.90
11704;DHT22;5908;51.354;7.458;2023-12-28T00:26:57;10.20;99.90
11704;DHT22;5908;51.354;7.458;2023-12-28T00:29:24;10.20;99.90
11704;DHT22;5908;51.354;7.458;2023-12-28T00:31:50;10.20;99.90
11704;DHT22;5908;51.354;7.458;2023-12-28T00:34:17;10.20;99.90
11704;DHT22;5908;51.354;7.458;2023-12-28T00:36:45;10.20;99.90
11704;DHT22;5908;51.354;7.458;2023-12-28T00:39:11;10.20;99.90
11704;DHT22;5908;51.354;7.458;2023-12-28T00:41:38;10.20;99.90
11704;DHT22;5908;51.354;7.458;2023-12-28T00:44:05;10.10;99.90
11704;DHT22;5908;51.354;7.458;2023-12-28T00:46:34;10.10;99.90
11704;DHT22;5908;51.354;7.458;2023-12-28T00:49:01;10.00;99.90
11704;DHT22;5908;51.354;7.458;2023-12-28T00:51:27;10.00;99.90
11704;DHT22;5908;51.354;7.458;2023-12-28T00:53:55;10.10;99.90
11704;DHT22;5908;51.354;7.458;2023-12-28T00:56:22;10.10;99.90
11704;DHT22;5908;51.354;7.458;2023-12-28T00:58:48;10.10;99.90
11704;DHT22;5908;51.354;7.458;2023-12-28T01:01:15;10.20;99.90
11704;DHT22;5908;51.354;7.458;2023-12-28T01:03:41;10.10;99.90
11704;DHT22;5908;51.354;7.458;2023-12-28T01:06:08;10.20;99.90
11704;DHT22;5908;51.354;7.458;2023-12-28T01:08:35;10.20;99.90
11704;DHT22;5908;51.354;7.458;2023-12-28T01:11:02;10.30;99.90
11704;DHT22;5908;51.354;7.458;2023-12-28T01:13:29;10.30;99.90
11704;DHT22;5908;51.354;7.458;2023-12-28T01:15:56;10.30;99.90
11704;DHT22;5908;51.354;7.458;2023-12-28T01:18:22;10.30;99.90
11704;DHT22;5908;51.354;7.458;2023-12-28T01:20:49;10.40;99.90
11704;DHT22;5908;51.354;7.458;2023-12-28T01:23:15;10.50;99.90
11704;DHT22;5908;51.354;7.458;2023-12-28T01:25:42;10.30;99.90
11704;DHT22;5908;51.354;7.458;2023-12-28T01:28:10;10.40;99.90
11704;DHT22;5908;51.354;7.458;2023-12-28T01:30:36;10.40;99.90
11704;DHT22;5908;51.354;7.458;2023-12-28T01:33:03;10.40;99.90
11704;DHT22;5908;51.354;7.458;2023-12-28T01:35:30;10.40;99.90
11704;DHT22;5908;51.354;7.458;2023-12-28T01:37:57;10.40;99.90
11704;DHT22;5908;51.354;7.458;2023-12-28T01:40:25;10.40;99.90
11704;DHT22;5908;51.354;7.458;2023-12-28T01:42:52;10.40;99.90
11704;DHT22;5908;51.354;7.458;2023-12-28T01:45:20;10.50;99.90
11704;DHT22;5908;51.354;7.458;2023-12-28T01:47:46;10.60;99.90
11704;DHT22;5908;51.354;7.458;2023-12-28T01:50:14;10.60;99.90
11704;DHT22;5908;51.354;7.458;2023-12-28T01:52:41;10.60;99.90
11704;DHT22;5908;51.354;7.458;2023-12-28T01:55:08;10.70;99.90
11704;DHT22;5908;51.354;7.458;2023-12-28T01:57:35;10.70;99.90
11704;DHT22;5908;51.354;7.458;2023-12-28T02:00:02;10.60;99.90
11704;DHT22;5908;51.354;7.458;2023-12-28T02:02:31;10.60;99.90
11704;DHT22;5908;51.354;7.458;2023-12-28T02:04:58;10.70;99.90
11704;DHT22;5908;51.354;7.458;2023-12-28T02:07:24;10.70;99.90
11704;DHT22;5908;51.354;7.458;2023-12-28T02:09:51;10.70;99.90
11704;DHT22;5908;51.354;7.458;2023-12-28T02:12:18;10.70;99.90
11704;DHT22;5908;51.354;7.458;2023-12-28T02:14:44;10.80;99.90
11704;DHT22;5908;51.354;7.458;2023-12-28T02:17:13;10.80;99.90
11704;DHT22;5908;51.354;7.458;2023-12-28T02:19:43;10.80;99.90
11704;DHT22;5908;51.354;7.458;2023-12-28T02:22:10;10.80;99.90
11704;DHT22;5908;51.354;7.458;2023-12-28T02:27:31;10.80;99.90
11704;DHT22;5908;51.354;7.458;2023-12-28T02:29:57;10.90;99.90
11704;DHT22;5908;51.354;7.458;2023-12-28T02:32:26;10.90;99.90
11704;DHT22;5908;51.354;7.458;2023-12-28T02:34:55;10.80;99.90
11704;DHT22;5908;51.354;7.458;2023-12-28T02:37:24;10.80;99.90
11704;DHT22;5908;51.354;7.458;2023-12-28T02:39:52;10.80;99.90
11704;DHT22;5908;51.354;7.458;2023-12-28T02:42:19;10.90;99.90
11704;DHT22;5908;51.354;7.458;2023-12-28T02:44:47;10.90;99.90
11704;DHT22;5908;51.354;7.458;2023-12-28T02:47:14;10.70;99.90
11704;DHT22;5908;51.354;7.458;2023-12-28T02:49:40;10.70;99.90
11704;DHT22;5908;51.354;7.458;2023-12-28T02:52:07;10.70;99.90
11704;DHT22;5908;51.354;7.458;2023-12-28T02:54:33;10.80;99.90
11704;DHT22;5908;51.354;7.458;2023-12-28T02:57:00;10.80;99.90
11704;DHT22;5908;51.354;7.458;2023-12-28T02:59:26;10.80;99.90
11704;DHT22;5908;51.354;7.458;2023-12-28T03:01:54;10.80;99.90
11704;DHT22;5908;51.354;7.458;2023-12-28T03:04:21;10.80;99.90
11704;DHT22;5908;51.354;7.458;2023-12-28T03:06:48;10.80;99.90
11704;DHT22;5908;51.354;7.458;2023-12-28T03:09:14;10.90;99.90
11704;DHT22;5908;51.354;7.458;2023-12-28T03:11:41;10.90;99.90
11704;DHT22;5908;51.354;7.458;2023-12-28T03:14:07;10.90;99.90
11704;DHT22;5908;51.354;7.458;2023-12-28T03:16:34;10.90;99.90
11704;DHT22;5908;51.354;7.458;2023-12-28T03:19:02;11.00;99.90
11704;DHT22;5908;51.354;7.458;2023-12-28T03:21:28;10.90;99.90
11704;DHT22;5908;51.354;7.458;2023-12-28T03:23:55;11.00;99.90
11704;DHT22;5908;51.354;7.458;2023-12-28T03:26:22;11.00;99.90
11704;DHT22;5908;51.354;7.458;2023-12-28T03:28:49;11.00;99.90
11704;DHT22;5908;51.354;7.458;2023-12-28T03:31:15;10.90;99.90
11704;DHT22;5908;51.354;7.458;2023-12-28T03:33:42;10.80;99.90
11704;DHT22;5908;51.354;7.458;2023-12-28T03:36:18;10.80;99.90
11704;DHT22;5908;51.354;7.458;2023-12-28T03:38:45;10.90;99.90
11704;DHT22;5908;51.354;7.458;2023-12-28T03:41:15;10.90;99.90
11704;DHT22;5908;51.354;7.458;2023-12-28T03:43:42;10.90;99.90
11704;DHT22;5908;51.354;7.458;2023-12-28T03:46:09;11.00;99.90
11704;DHT22;5908;51.354;7.458;2023-12-28T03:48:36;11.00;99.90
11704;DHT22;5908;51.354;7.458;2023-12-28T03:51:02;11.00;99.90
11704;DHT22;5908;51.354;7.458;2023-12-28T03:53:30;11.00;99.90
11704;DHT22;5908;51.354;7.458;2023-12-28T03:55:57;11.00;99.90
11704;DHT22;5908;51.354;7.458;2023-12-28T03:58:24;11.00;99.90
11704;DHT22;5908;51.354;7.458;2023-12-28T04:00:50;11.00;99.90
11704;DHT22;5908;51.354;7.458;2023-12-28T04:03:17;11.00;99.90
11704;DHT22;5908;51.354;7.458;2023-12-28T04:05:44;11.00;99.90
11704;DHT22;5908;51.354;7.458;2023-12-28T04:08:10;10.90;99.90
11704;DHT22;5908;51.354;7.458;2023-12-28T04:10:38;11.10;99.90
11704;DHT22;5908;51.354;7.458;2023-12-28T04:13:05;11.00;99.90
11704;DHT22;5908;51.354;7.458;2023-12-28T04:15:31;10.90;99.90
11704;DHT22;5908;51.354;7.458;2023-12-28T04:17:58;10.90;99.90
11704;DHT22;5908;51.354;7.458;2023-12-28T04:20:25;10.90;99.90
11704;DHT22;5908;51.354;7.458;2023-12-28T04:22:51;10.90;99.90
11704;DHT22;5908;51.354;7.458;2023-12-28T04:25:18;10.80;99.90
11704;DHT22;5908;51.354;7.458;2023-12-28T04:27:46;10.80;99.90
11704;DHT22;5908;51.354;7.458;2023-12-28T04:30:13;10.80;99.90
11704;DHT22;5908;51.354;7.458;2023-12-28T04:32:39;10.80;99.90
11704;DHT22;5908;51.354;7.458;2023-12-28T04:35:06;10.70;99.90
11704;DHT22;5908;51.354;7.458;2023-12-28T04:37:33;10.80;99.90
11704;DHT22;5908;51.354;7.458;2023-12-28T04:40:00;10.70;99.90
11704;DHT22;5908;51.354;7.458;2023-12-28T04:42:28;10.70;99.90
11704;DHT22;5908;51.354;7.458;2023-12-28T04:44:56;10.60;99.90
11704;DHT22;5908;51.354;7.458;2023-12-28T04:47:22;10.70;99.90
11704;DHT22;5908;51.354;7.458;2023-12-28T04:49:49;10.70;99.90
11704;DHT22;5908;51.354;7.458;2023-12-28T04:52:15;10.70;99.90
11704;DHT22;5908;51.354;7.458;2023-12-28T04:54:42;10.80;99.90
11704;DHT22;5908;51.354;7.458;2023-12-28T04:57:09;10.70;99.90
11704;DHT22;5908;51.354;7.458;2023-12-28T04:59:37;10.70;99.90
11704;DHT22;5908;51.354;7.458;2023-12-28T05:02:05;10.80;99.90
11704;DHT22;5908;51.354;7.458;2023-12-28T05:04:32;10.80;99.90
11704;DHT22;5908;51.354;7.458;2023-12-28T05:06:58;10.70;99.90
11704;DHT22;5908;51.354;7.458;2023-12-28T05:09:25;10.60;99.90
11704;DHT22;5908;51.354;7.458;2023-12-28T05:11:52;10.60;99.90
11704;DHT22;5908;51.354;7.458;2023-12-28T05:14:18;10.60;99.90
11704;DHT22;5908;51.354;7.458;2023-12-28T05:16:45;10.60;99.90
11704;DHT22;5908;51.354;7.458;2023-12-28T05:19:13;10.70;99.90
11704;DHT22;5908;51.354;7.458;2023-12-28T05:21:39;10.80;99.90
11704;DHT22;5908;51.354;7.458;2023-12-28T05:24:06;10.80;99.90
11704;DHT22;5908;51.354;7.458;2023-12-28T05:26:33;10.80;99.90
11704;DHT22;5908;51.354;7.458;2023-12-28T05:28:59;10.80;99.90
11704;DHT22;5908;51.354;7.458;2023-12-28T05:31:26;10.80;99.90
11704;DHT22;5908;51.354;7.458;2023-12-28T05:33:53;10.80;99.90
11704;DHT22;5908;51.354;7.458;2023-12-28T05:36:21;10.80;99.90
11704;DHT22;5908;51.354;7.458;2023-12-28T05:38:48;10.80;99.90
11704;DHT22;5908;51.354;7.458;2023-12-28T05:41:14;10.70;99.90
11704;DHT22;5908;51.354;7.458;2023-12-28T05:43:41;10.70;99.90
11704;DHT22;5908;51.354;7.458;2023-12-28T05:46:07;10.70;99.90
11704;DHT22;5908;51.354;7.458;2023-12-28T05:48:34;10.70;99.90
11704;DHT22;5908;51.354;7.458;2023-12-28T05:51:00;10.60;99.90
11704;DHT22;5908;51.354;7.458;2023-12-28T05:53:29;10.60;99.90
11704;DHT22;5908;51.354;7.458;2023-12-28T05:55:55;10.60;99.90
11704;DHT22;5908;51.354;7.458;2023-12-28T05:58:22;10.60;99.90
11704;DHT22;5908;51.354;7.458;2023-12-28T06:00:49;10.70;99.90
11704;DHT22;5908;51.354;7.458;2023-12-28T06:03:15;10.80;99.90
11704;DHT22;5908;51.354;7.458;2023-12-28T06:05:42;10.80;99.90
11704;DHT22;5908;51.354;7.458;2023-12-28T06:08:08;10.80;99.90
11704;DHT22;5908;51.354;7.458;2023-12-28T06:10:37;10.90;99.90
11704;DHT22;5908;51.354;7.458;2023-12-28T06:13:04;10.80;99.90
11704;DHT22;5908;51.354;7.458;2023-12-28T06:15:31;10.90;99.90
11704;DHT22;5908;51.354;7.458;2023-12-28T06:17:58;10.80;99.90
11704;DHT22;5908;51.354;7.458;2023-12-28T06:20:24;10.80;99.90
11704;DHT22;5908;51.354;7.458;2023-12-28T06:22:51;10.80;99.90
11704;DHT22;5908;51.354;7.458;2023-12-28T06:25:17;10.70;99.90
11704;DHT22;5908;51.354;7.458;2023-12-28T06:27:45;10.70;99.90
11704;DHT22;5908;51.354;7.458;2023-12-28T06:30:12;10.70;99.90
11704;DHT22;5908;51.354;7.458;2023-12-28T06:32:39;10.60;99.90
11704;DHT22;5908;51.354;7.458;2023-12-28T06:35:06;10.60;99.90
11704;DHT22;5908;51.354;7.458;2023-12-28T06:37:33;10.60;99.90
11704;DHT22;5908;51.354;7.458;2023-12-28T06:39:59;10.60;99.90
11704;DHT22;5908;51.354;7.458;2023-12-28T06:42:26;10.60;99.90
11704;DHT22;5908;51.354;7.458;2023-12-28T06:44:54;10.50;99.90
11704;DHT22;5908;51.354;7.458;2023-12-28T06:47:20;10.50;99.90
11704;DHT22;5908;51.354;7.458;2023-12-28T06:49:47;10.50;99.90
11704;DHT22;5908;51.354;7.458;2023-12-28T06:52:13;10.50;99.90
11704;DHT22;5908;51.354;7.458;2023-12-28T06:54:40;10.40;99.90
11704;DHT22;5908;51.354;7.458;2023-12-28T06:57:06;10.40;99.90
11704;DHT22;5908;51.354;7.458;2023-12-28T06:59:33;10.50;99.90
11704;DHT22;5908;51.354;7.458;2023-12-28T07:02:01;10.60;99.90
11704;DHT22;5908;51.354;7.458;2023-12-28T07:04:28;10.60;99.90
11704;DHT22;5908;51.354;7.458;2023-12-28T07:06:55;10.60;99.90
11704;DHT22;5908;51.354;7.458;2023-12-28T07:09:21;10.50;99.90
11704;DHT22;5908;51.354;7.458;2023-12-28T07:11:48;10.60;99.90
11704;DHT22;5908;51.354;7.458;2023-12-28T07:14:14;10.50;99.90
11704;DHT22;5908;51.354;7.458;2023-12-28T07:16:41;10.30;99.90
11704;DHT22;5908;51.354;7.458;2023-12-28T07:19:09;10.30;99.90
11704;DHT22;5908;51.354;7.458;2023-12-28T07:21:35;10.30;99.90
11704;DHT22;5908;51.354;7.458;2023-12-28T07:24:02;10.30;99.90
11704;DHT22;5908;51.354;7.458;2023-12-28T07:26:29;10.30;99.90
11704;DHT22;5908;51.354;7.458;2023-12-28T07:28:55;10.20;99.90
11704;DHT22;5908;51.354;7.458;2023-12-28T07:31:22;10.20;99.90
11704;DHT22;5908;51.354;7.458;2023-12-28T07:33:49;10.20;99.90
11704;DHT22;5908;51.354;7.458;2023-12-28T07:36:17;10.20;99.90
11704;DHT22;5908;51.354;7.458;2023-12-28T07:38:43;10.20;99.90
11704;DHT22;5908;51.354;7.458;2023-12-28T07:41:10;10.20;99.90
11704;DHT22;5908;51.354;7.458;2023-12-28T07:43:37;10.20;99.90
11704;DHT22;5908;51.354;7.458;2023-12-28T07:46:03;10.20;99.90
11704;DHT22;5908;51.354;7.458;2023-12-28T07:48:30;10.20;99.90
11704;DHT22;5908;51.354;7.458;2023-12-28T07:50:56;10.20;99.90
11704;DHT22;5908;51.354;7.458;2023-12-28T07:53:24;10.10;99.90
11704;DHT22;5908;51.354;7.458;2023-12-28T07:55:51;10.10;99.90
11704;DHT22;5908;51.354;7.458;2023-12-28T07:58:17;10.10;99.90
11704;DHT22;5908;51.354;7.458;2023-12-28T08:00:44;10.00;99.90
11704;DHT22;5908;51.354;7.458;2023-12-28T08:03:10;10.10;99.90
11704;DHT22;5908;51.354;7.458;2023-12-28T08:05:40;10.10;99.90
11704;DHT22;5908;51.354;7.458;2023-12-28T08:08:07;10.10;99.90
11704;DHT22;5908;51.354;7.458;2023-12-28T08:10:35;10.10;99.90
11704;DHT22;5908;51.354;7.458;2023-12-28T08:13:01;10.10;99.90
11704;DHT22;5908;51.354;7.458;2023-12-28T08:15:28;10.10;99.90
11704;DHT22;5908;51.354;7.458;2023-12-28T08:17:54;10.20;99.90
11704;DHT22;5908;51.354;7.458;2023-12-28T08:20:21;10.20;99.90
11704;DHT22;5908;51.354;7.458;2023-12-28T08:22:48;10.20;99.90
11704;DHT22;5908;51.354;7.458;2023-12-28T08:25:14;10.30;99.90
11704;DHT22;5908;51.354;7.458;2023-12-28T08:27:42;10.30;99.90
11704;DHT22;5908;51.354;7.458;2023-12-28T08:30:09;10.40;99.90
11704;DHT22;5908;51.354;7.458;2023-12-28T08:32:35;10.40;99.90
11704;DHT22;5908;51.354;7.458;2023-12-28T08:35:02;10.40;99.90
11704;DHT22;5908;51.354;7.458;2023-12-28T08:37:29;10.40;99.90
11704;DHT22;5908;51.354;7.458;2023-12-28T08:39:56;10.60;99.90
11704;DHT22;5908;51.354;7.458;2023-12-28T08:42:23;10.60;99.90
11704;DHT22;5908;51.354;7.458;2023-12-28T08:44:51;10.70;99.90
11704;DHT22;5908;51.354;7.458;2023-12-28T08:47:18;10.70;99.90
11704;DHT22;5908;51.354;7.458;2023-12-28T08:49:44;10.70;99.90
11704;DHT22;5908;51.354;7.458;2023-12-28T08:52:11;10.80;99.90
11704;DHT22;5908;51.354;7.458;2023-12-28T08:54:37;10.80;99.90
11704;DHT22;5908;51.354;7.458;2023-12-28T08:57:04;10.80;99.90
11704;DHT22;5908;51.354;7.458;2023-12-28T08:59:31;11.00;99.90
11704;DHT22;5908;51.354;7.458;2023-12-28T09:01:59;11.10;99.90
11704;DHT22;5908;51.354;7.458;2023-12-28T09:04:26;11.20;99.90
11704;DHT22;5908;51.354;7.458;2023-12-28T09:06:53;11.20;99.90
11704;DHT22;5908;51.354;7.458;2023-12-28T09:09:20;11.20;99.90
11704;DHT22;5908;51.354;7.458;2023-12-28T09:11:46;11.30;99.90
11704;DHT22;5908;51.354;7.458;2023-12-28T09:14:13;11.40;99.90
11704;DHT22;5908;51.354;7.458;2023-12-28T09:16:39;11.50;99.90
11704;DHT22;5908;51.354;7.458;2023-12-28T09:19:09;11.60;99.90
11704;DHT22;5908;51.354;7.458;2023-12-28T09:21:36;11.60;99.90
11704;DHT22;5908;51.354;7.458;2023-12-28T09:24:04;11.60;99.90
11704;DHT22;5908;51.354;7.458;2023-12-28T09:26:30;11.70;99.90
11704;DHT22;5908;51.354;7.458;2023-12-28T09:28:58;11.90;99.90
11704;DHT22;5908;51.354;7.458;2023-12-28T09:31:25;11.90;99.90
11704;DHT22;5908;51.354;7.458;2023-12-28T09:33:51;11.90;99.90
11704;DHT22;5908;51.354;7.458;2023-12-28T09:36:20;11.80;99.90
11704;DHT22;5908;51.354;7.458;2023-12-28T09:38:47;11.90;99.90
11704;DHT22;5908;51.354;7.458;2023-12-28T09:41:15;11.90;99.90
11704;DHT22;5908;51.354;7.458;2023-12-28T09:43:48;11.80;99.90
11704;DHT22;5908;51.354;7.458;2023-12-28T09:46:20;11.90;99.90
11704;DHT22;5908;51.354;7.458;2023-12-28T09:48:46;11.90;99.90
11704;DHT22;5908;51.354;7.458;2023-12-28T09:51:14;11.90;99.90
11704;DHT22;5908;51.354;7.458;2023-12-28T09:53:43;11.90;99.90
11704;DHT22;5908;51.354;7.458;2023-12-28T09:56:10;12.00;99.90
11704;DHT22;5908;51.354;7.458;2023-12-28T09:58:37;12.00;99.90
11704;DHT22;5908;51.354;7.458;2023-12-28T10:01:05;12.10;99.90
11704;DHT22;5908;51.354;7.458;2023-12-28T10:03:32;12.10;99.90
11704;DHT22;5908;51.354;7.458;2023-12-28T10:05:59;12.20;99.90
11704;DHT22;5908;51.354;7.458;2023-12-28T10:08:26;12.20;99.90
11704;DHT22;5908;51.354;7.458;2023-12-28T10:10:54;12.30;99.90
11704;DHT22;5908;51.354;7.458;2023-12-28T10:13:25;12.30;99.90
11704;DHT22;5908;51.354;7.458;2023-12-28T10:15:52;12.30;99.90
11704;DHT22;5908;51.354;7.458;2023-12-28T10:18:18;12.20;99.90
11704;DHT22;5908;51.354;7.458;2023-12-28T10:20:49;12.30;99.90
11704;DHT22;5908;51.354;7.458;2023-12-28T10:23:16;12.40;99.90
11704;DHT22;5908;51.354;7.458;2023-12-28T10:25:43;12.50;99.90
11704;DHT22;5908;51.354;7.458;2023-12-28T10:28:12;12.50;99.90
11704;DHT22;5908;51.354;7.458;2023-12-28T10:30:39;12.40;99.90
11704;DHT22;5908;51.354;7.458;2023-12-28T10:33:06;12.50;99.90
11704;DHT22;5908;51.354;7.458;2023-12-28T10:35:33;12.60;99.90
11704;DHT22;5908;51.354;7.458;2023-12-28T10:38:01;12.50;99.90
11704;DHT22;5908;51.354;7.458;2023-12-28T10:40:29;12.60;99.90
11704;DHT22;5908;51.354;7.458;2023-12-28T10:42:58;12.60;99.90
11704;DHT22;5908;51.354;7.458;2023-12-28T10:45:30;12.60;99.70
11704;DHT22;5908;51.354;7.458;2023-12-28T10:48:04;12.60;99.50
11704;DHT22;5908;51.354;7.458;2023-12-28T10:50:38;12.60;99.60
11704;DHT22;5908;51.354;7.458;2023-12-28T10:53:16;12.60;99.40
11704;DHT22;5908;51.354;7.458;2023-12-28T10:55:53;12.60;99.40
11704;DHT22;5908;51.354;7.458;2023-12-28T10:58:35;12.70;99.70
11704;DHT22;5908;51.354;7.458;2023-12-28T11:01:08;12.80;98.60
11704;DHT22;5908;51.354;7.458;2023-12-28T11:03:37;12.90;98.60
11704;DHT22;5908;51.354;7.458;2023-12-28T11:06:08;12.90;98.10
11704;DHT22;5908;51.354;7.458;2023-12-28T11:08:38;12.90;98.10
11704;DHT22;5908;51.354;7.458;2023-12-28T11:11:09;12.90;97.80
11704;DHT22;5908;51.354;7.458;2023-12-28T11:13:37;13.00;98.30
11704;DHT22;5908;51.354;7.458;2023-12-28T11:16:08;13.10;97.60
11704;DHT22;5908;51.354;7.458;2023-12-28T11:18:35;13.20;97.80
11704;DHT22;5908;51.354;7.458;2023-12-28T11:21:03;13.30;97.30
11704;DHT22;5908;51.354;7.458;2023-12-28T11:23:30;13.30;96.90
11704;DHT22;5908;51.354;7.458;2023-12-28T11:25:57;13.30;96.80
11704;DHT22;5908;51.354;7.458;2023-12-28T11:28:24;13.30;96.70
11704;DHT22;5908;51.354;7.458;2023-12-28T11:30:51;13.20;96.70
11704;DHT22;5908;51.354;7.458;2023-12-28T11:33:19;13.10;97.10
11704;DHT22;5908;51.354;7.458;2023-12-28T11:35:47;13.10;97.10
11704;DHT22;5908;51.354;7.458;2023-12-28T11:38:16;13.10;97.10
11704;DHT22;5908;51.354;7.458;2023-12-28T11:40:45;13.10;97.10
11704;DHT22;5908;51.354;7.458;2023-12-28T11:43:18;13.10;96.90
11704;DHT22;5908;51.354;7.458;2023-12-28T11:45:49;13.10;96.80
11704;DHT22;5908;51.354;7.458;2023-12-28T11:48:25;13.20;97.00
11704;DHT22;5908;51.354;7.458;2023-12-28T11:50:55;13.30;96.70
11704;DHT22;5908;51.354;7.458;2023-12-28T11:53:23;13.40;96.40
11704;DHT22;5908;51.354;7.458;2023-12-28T11:55:50;13.50;96.30
11704;DHT22;5908;51.354;7.458;2023-12-28T11:58:17;13.50;96.30
11704;DHT22;5908;51.354;7.458;2023-12-28T12:00:44;13.50;96.10
11704;DHT22;5908;51.354;7.458;2023-12-28T12:03:11;13.50;95.90
11704;DHT22;5908;51.354;7.458;2023-12-28T12:05:41;13.50;96.10
11704;DHT22;5908;51.354;7.458;2023-12-28T12:08:09;13.50;95.80
11704;DHT22;5908;51.354;7.458;2023-12-28T12:10:39;13.50;95.90
11704;DHT22;5908;51.354;7.458;2023-12-28T12:13:06;13.60;95.30
11704;DHT22;5908;51.354;7.458;2023-12-28T12:15:32;13.50;95.40
11704;DHT22;5908;51.354;7.458;2023-12-28T12:18:00;13.50;95.70
11704;DHT22;5908;51.354;7.458;2023-12-28T12:20:28;13.50;95.30
11704;DHT22;5908;51.354;7.458;2023-12-28T12:22:59;13.50;95.40
11704;DHT22;5908;51.354;7.458;2023-12-28T12:25:26;13.60;95.00
11704;DHT22;5908;51.354;7.458;2023-12-28T12:27:53;13.60;94.80
11704;DHT22;5908;51.354;7.458;2023-12-28T12:30:20;13.50;94.40
11704;DHT22;5908;51.354;7.458;2023-12-28T12:32:48;13.60;94.70
11704;DHT22;5908;51.354;7.458;2023-12-28T12:35:17;13.70;94.30
11704;DHT22;5908;51.354;7.458;2023-12-28T12:37:47;13.60;94.10
11704;DHT22;5908;51.354;7.458;2023-12-28T12:40:17;13.60;94.60
11704;DHT22;5908;51.354;7.458;2023-12-28T12:42:51;13.70;95.00
11704;DHT22;5908;51.354;7.458;2023-12-28T12:45:18;14.00;94.10
11704;DHT22;5908;51.354;7.458;2023-12-28T12:47:46;14.00;94.00
11704;DHT22;5908;51.354;7.458;2023-12-28T12:50:13;14.00;93.70
11704;DHT22;5908;51.354;7.458;2023-12-28T12:52:42;13.90;93.60
11704;DHT22;5908;51.354;7.458;2023-12-28T12:55:10;13.80;93.60
11704;DHT22;5908;51.354;7.458;2023-12-28T12:57:39;13.70;93.90
11704;DHT22;5908;51.354;7.458;2023-12-28T13:00:08;13.80;93.80
11704;DHT22;5908;51.354;7.458;2023-12-28T13:02:35;13.70;94.00
11704;DHT22;5908;51.354;7.458;2023-12-28T13:05:03;13.70;93.90
11704;DHT22;5908;51.354;7.458;2023-12-28T13:07:31;13.80;94.00
11704;DHT22;5908;51.354;7.458;2023-12-28T13:09:57;13.70;93.80
11704;DHT22;5908;51.354;7.458;2023-12-28T13:12:24;13.70;94.10
11704;DHT22;5908;51.354;7.458;2023-12-28T13:14:52;13.70;94.00
11704;DHT22;5908;51.354;7.458;2023-12-28T13:17:19;13.70;94.20
11704;DHT22;5908;51.354;7.458;2023-12-28T13:19:46;13.70;94.30
11704;DHT22;5908;51.354;7.458;2023-12-28T13:22:13;13.60;93.70
11704;DHT22;5908;51.354;7.458;2023-12-28T13:24:39;13.50;93.90
11704;DHT22;5908;51.354;7.458;2023-12-28T13:27:06;13.40;93.90
11704;DHT22;5908;51.354;7.458;2023-12-28T13:29:33;13.30;94.30
11704;DHT22;5908;51.354;7.458;2023-12-28T13:32:01;13.40;94.50
11704;DHT22;5908;51.354;7.458;2023-12-28T13:34:28;13.40;94.20
11704;DHT22;5908;51.354;7.458;2023-12-28T13:36:55;13.40;94.10
11704;DHT22;5908;51.354;7.458;2023-12-28T13:39:22;13.40;94.00
11704;DHT22;5908;51.354;7.458;2023-12-28T13:41:48;13.30;93.90
11704;DHT22;5908;51.354;7.458;2023-12-28T13:44:15;13.30;94.00
11704;DHT22;5908;51.354;7.458;2023-12-28T13:46:42;13.30;94.00
11704;DHT22;5908;51.354;7.458;2023-12-28T13:49:11;13.30;94.10
11704;DHT22;5908;51.354;7.458;2023-12-28T13:51:37;13.30;94.10
11704;DHT22;5908;51.354;7.458;2023-12-28T13:54:04;13.30;94.60
11704;DHT22;5908;51.354;7.458;2023-12-28T13:56:32;13.30;94.40
11704;DHT22;5908;51.354;7.458;2023-12-28T13:58:58;13.30;94.40
11704;DHT22;5908;51.354;7.458;2023-12-28T14:01:25;13.40;94.30
11704;DHT22;5908;51.354;7.458;2023-12-28T14:03:52;13.40;94.30
11704;DHT22;5908;51.354;7.458;2023-12-28T14:06:20;13.40;94.30
11704;DHT22;5908;51.354;7.458;2023-12-28T14:08:47;13.40;94.40
11704;DHT22;5908;51.354;7.458;2023-12-28T14:11:14;13.30;94.50
11704;DHT22;5908;51.354;7.458;2023-12-28T14:13:40;13.20;94.80
11704;DHT22;5908;51.354;7.458;2023-12-28T14:16:07;13.10;94.80
11704;DHT22;5908;51.354;7.458;2023-12-28T14:18:34;13.00;95.10
11704;DHT22;5908;51.354;7.458;2023-12-28T14:21:01;13.00;94.80
11704;DHT22;5908;51.354;7.458;2023-12-28T14:23:31;13.00;95.00
11704;DHT22;5908;51.354;7.458;2023-12-28T14:25:58;12.90;95.00
11704;DHT22;5908;51.354;7.458;2023-12-28T14:28:25;12.80;95.40
11704;DHT22;5908;51.354;7.458;2023-12-28T14:30:55;12.80;95.20
11704;DHT22;5908;51.354;7.458;2023-12-28T14:33:23;12.80;95.10
11704;DHT22;5908;51.354;7.458;2023-12-28T14:35:50;12.80;95.50
11704;DHT22;5908;51.354;7.458;2023-12-28T14:38:17;12.70;95.30
11704;DHT22;5908;51.354;7.458;2023-12-28T14:40:45;12.70;95.20
11704;DHT22;5908;51.354;7.458;2023-12-28T14:43:12;12.70;95.30
11704;DHT22;5908;51.354;7.458;2023-12-28T14:45:39;12.60;95.30
11704;DHT22;5908;51.354;7.458;2023-12-28T14:48:07;12.60;95.30
11704;DHT22;5908;51.354;7.458;2023-12-28T14:50:34;12.50;95.40
11704;DHT22;5908;51.354;7.458;2023-12-28T14:53:01;12.50;95.50
11704;DHT22;5908;51.354;7.458;2023-12-28T14:55:28;12.50;95.60
11704;DHT22;5908;51.354;7.458;2023-12-28T14:57:56;12.40;95.50
11704;DHT22;5908;51.354;7.458;2023-12-28T15:00:24;12.40;95.70
11704;DHT22;5908;51.354;7.458;2023-12-28T15:02:51;12.30;95.70
11704;DHT22;5908;51.354;7.458;2023-12-28T15:05:18;12.30;95.70
11704;DHT22;5908;51.354;7.458;2023-12-28T15:07:44;12.10;95.80
11704;DHT22;5908;51.354;7.458;2023-12-28T15:10:14;12.20;95.80
11704;DHT22;5908;51.354;7.458;2023-12-28T15:12:41;12.10;96.00
11704;DHT22;5908;51.354;7.458;2023-12-28T15:15:10;12.10;96.10
11704;DHT22;5908;51.354;7.458;2023-12-28T15:17:38;12.10;96.40
11704;DHT22;5908;51.354;7.458;2023-12-28T15:20:06;12.10;96.40
11704;DHT22;5908;51.354;7.458;2023-12-28T15:22:34;12.10;96.10
11704;DHT22;5908;51.354;7.458;2023-12-28T15:25:01;12.10;96.40
11704;DHT22;5908;51.354;7.458;2023-12-28T15:27:29;12.10;96.40
11704;DHT22;5908;51.354;7.458;2023-12-28T15:29:56;12.10;96.40
11704;DHT22;5908;51.354;7.458;2023-12-28T15:32:24;12.10;96.40
11704;DHT22;5908;51.354;7.458;2023-12-28T15:34:51;12.10;96.10
11704;DHT22;5908;51.354;7.458;2023-12-28T15:37:17;12.00;96.10
11704;DHT22;5908;51.354;7.458;2023-12-28T15:39:44;11.90;96.20
11704;DHT22;5908;51.354;7.458;2023-12-28T15:42:11;12.00;96.40
11704;DHT22;5908;51.354;7.458;2023-12-28T15:44:37;11.90;96.30
11704;DHT22;5908;51.354;7.458;2023-12-28T15:47:04;11.90;96.80